Time,TemperatureF,DewpointF,PressureIn,WindDirection,WindDirectionDegrees,WindSpeedMPH,WindSpeedGustMPH,Humidity,HourlyPrecipIn,Conditions,Clouds,dailyrainin,SoftwareType,DateUTC
2013-06-26 00:01:00,59.7,44.9,29.23,SE,135,0.0,0.0,58,0.00,,---,0.00,VWS V14.01,2013-06-26 08:01:00,
2013-06-26 00:06:00,59.5,44.8,29.23,SE,135,0.0,0.0,58,0.00,,---,0.00,VWS V14.01,2013-06-26 08:06:00,
2013-06-26 00:11:00,59.5,44.8,29.23,SE,135,0.0,0.0,58,0.00,,---,0.00,VWS V14.01,2013-06-26 08:11:00,
2013-06-26 00:16:00,59.7,45.4,29.23,SE,135,0.0,0.0,59,0.00,,---,0.00,VWS V14.01,2013-06-26 08:16:00,
2013-06-26 00:21:00,59.7,45.4,29.23,SE,135,0.0,0.0,59,0.00,,---,0.00,VWS V14.01,2013-06-26 08:21:00,
2013-06-26 00:26:00,59.7,45.4,29.23,SE,135,0.0,0.0,59,0.00,,---,0.00,VWS V14.01,2013-06-26 08:26:00,
2013-06-26 00:31:00,59.7,45.8,29.23,SE,135,0.0,0.0,60,0.00,,---,0.00,VWS V14.01,2013-06-26 08:31:00,
2013-06-26 00:36:00,59.7,45.8,29.23,SE,135,0.0,0.0,60,0.00,,---,0.00,VWS V14.01,2013-06-26 08:36:00,
2013-06-26 00:41:00,59.7,46.3,29.23,SE,135,0.0,0.0,61,0.00,,---,0.00,VWS V14.01,2013-06-26 08:41:00,
2013-06-26 00:46:00,59.7,46.3,29.23,SE,135,0.0,0.0,61,0.00,,---,0.00,VWS V14.01,2013-06-26 08:46:00,
2013-06-26 00:51:00,59.7,46.7,29.23,SE,135,0.0,0.0,62,0.00,,---,0.00,VWS V14.01,2013-06-26 08:51:00,
2013-06-26 00:56:00,59.5,46.5,29.23,SE,135,0.0,0.0,62,0.00,,---,0.00,VWS V14.01,2013-06-26 08:56:00,
2013-06-26 01:01:00,59.5,46.5,29.23,SE,135,0.0,0.0,62,0.00,,---,0.00,VWS V14.01,2013-06-26 09:01:00,
2013-06-26 01:06:00,59.5,46.5,29.23,SSE,158,0.0,0.0,62,0.00,,---,0.00,VWS V14.01,2013-06-26 09:06:00,
2013-06-26 01:11:00,59.4,46.8,29.23,SSE,158,0.0,0.0,63,0.00,,---,0.00,VWS V14.01,2013-06-26 09:11:00,
2013-06-26 01:16:00,59.5,47.0,29.26,SSE,158,0.0,0.0,63,0.00,,---,0.00,VWS V14.01,2013-06-26 09:16:00,
2013-06-26 01:21:00,59.5,47.0,29.26,SSE,158,0.0,0.0,63,0.00,,---,0.00,VWS V14.01,2013-06-26 09:21:00,
2013-06-26 01:26:00,59.7,47.1,29.26,SSE,158,0.0,0.0,63,0.00,,---,0.00,VWS V14.01,2013-06-26 09:26:00,
2013-06-26 01:31:00,59.7,47.1,29.23,SSE,158,0.0,0.0,63,0.00,,---,0.00,VWS V14.01,2013-06-26 09:31:00,
2013-06-26 01:36:00,59.9,47.3,29.23,SSE,158,0.0,0.0,63,0.00,,---,0.00,VWS V14.01,2013-06-26 09:36:00,
2013-06-26 01:41:00,59.9,46.9,29.23,SSE,158,0.0,0.0,62,0.00,,---,0.00,VWS V14.01,2013-06-26 09:41:00,
2013-06-26 01:46:00,59.7,46.7,29.26,SSE,158,0.0,0.0,62,0.00,,---,0.00,VWS V14.01,2013-06-26 09:46:00,
2013-06-26 01:51:00,59.5,46.5,29.26,SSE,158,0.0,0.0,62,0.00,,---,0.00,VWS V14.01,2013-06-26 09:51:00,
2013-06-26 01:56:00,59.4,46.3,29.26,SSE,158,0.0,0.0,62,0.00,,---,0.00,VWS V14.01,2013-06-26 09:56:00,
2013-06-26 02:01:00,59.2,46.2,29.26,SSE,158,0.0,0.0,62,0.00,,---,0.00,VWS V14.01,2013-06-26 10:01:00,
2013-06-26 02:06:00,59.0,46.0,29.26,SSE,158,0.0,0.0,62,0.00,,---,0.00,VWS V14.01,2013-06-26 10:06:00,
2013-06-26 02:11:00,58.5,46.3,29.26,SSE,158,0.0,0.0,64,0.00,,---,0.00,VWS V14.01,2013-06-26 10:11:00,
2013-06-26 02:16:00,58.3,46.2,29.26,SSE,158,0.0,0.0,64,0.00,,---,0.00,VWS V14.01,2013-06-26 10:16:00,
2013-06-26 02:21:00,58.3,46.6,29.26,SSE,158,0.0,0.0,65,0.00,,---,0.00,VWS V14.01,2013-06-26 10:21:00,
2013-06-26 02:26:00,58.1,46.4,29.26,SSE,158,0.0,0.0,65,0.00,,---,0.00,VWS V14.01,2013-06-26 10:26:00,
2013-06-26 02:31:00,57.9,46.6,29.26,SSE,158,0.0,0.0,66,0.00,,---,0.00,VWS V14.01,2013-06-26 10:31:00,
2013-06-26 02:36:00,57.9,46.6,29.26,SSE,158,0.0,0.0,66,0.00,,---,0.00,VWS V14.01,2013-06-26 10:36:00,
2013-06-26 02:41:00,57.4,46.5,29.26,SSE,158,0.0,0.0,67,0.00,,---,0.00,VWS V14.01,2013-06-26 10:41:00,
2013-06-26 02:46:00,57.2,46.8,29.26,SSE,158,0.0,0.0,68,0.00,,---,0.00,VWS V14.01,2013-06-26 10:46:00,
2013-06-26 02:51:00,56.8,46.4,29.26,SSE,158,0.0,0.0,68,0.00,,---,0.00,VWS V14.01,2013-06-26 10:51:00,
2013-06-26 02:56:00,56.8,46.8,29.26,SSE,158,0.0,0.0,69,0.00,,---,0.00,VWS V14.01,2013-06-26 10:56:00,
2013-06-26 03:01:00,56.8,47.5,29.26,SSE,158,0.0,0.0,71,0.00,,---,0.00,VWS V14.01,2013-06-26 11:01:00,
2013-06-26 03:06:00,56.8,47.9,29.26,SSE,158,0.0,0.0,72,0.00,,---,0.00,VWS V14.01,2013-06-26 11:06:00,
2013-06-26 03:11:00,56.8,47.9,29.26,SSE,158,0.0,0.0,72,0.00,,---,0.00,VWS V14.01,2013-06-26 11:11:00,
2013-06-26 03:16:00,56.8,47.9,29.26,SSE,158,0.0,0.0,72,0.00,,---,0.00,VWS V14.01,2013-06-26 11:16:00,
2013-06-26 03:21:00,56.7,47.8,29.26,NNW,338,0.0,0.0,72,0.00,,---,0.00,VWS V14.01,2013-06-26 11:21:00,
2013-06-26 03:26:00,56.7,47.8,29.26,NNW,338,0.0,0.0,72,0.00,,---,0.00,VWS V14.01,2013-06-26 11:26:00,
2013-06-26 03:31:00,56.5,47.6,29.26,NNW,338,0.0,0.0,72,0.00,,---,0.00,VWS V14.01,2013-06-26 11:31:00,
2013-06-26 03:36:00,56.3,47.8,29.26,NNW,338,0.0,0.0,73,0.00,,---,0.00,VWS V14.01,2013-06-26 11:36:00,
2013-06-26 03:41:00,56.3,47.8,29.26,WSW,248,0.0,0.0,73,0.00,,---,0.00,VWS V14.01,2013-06-26 11:41:00,
2013-06-26 03:46:00,55.9,47.4,29.26,WSW,248,0.0,0.0,73,0.00,,---,0.00,VWS V14.01,2013-06-26 11:46:00,
2013-06-26 03:51:00,55.9,47.4,29.26,WSW,248,0.0,0.0,73,0.00,,---,0.00,VWS V14.01,2013-06-26 11:51:00,
2013-06-26 03:56:00,55.9,47.4,29.26,WSW,248,0.0,0.0,73,0.00,,---,0.00,VWS V14.01,2013-06-26 11:56:00,
2013-06-26 04:01:00,55.8,47.2,29.26,WSW,248,0.0,0.0,73,0.00,,---,0.00,VWS V14.01,2013-06-26 12:01:00,
2013-06-26 04:06:00,55.4,46.9,29.26,WSW,248,0.0,0.0,73,0.00,,---,0.00,VWS V14.01,2013-06-26 12:06:00,
2013-06-26 04:11:00,55.4,46.9,29.26,WSW,248,0.0,0.0,73,0.00,,---,0.00,VWS V14.01,2013-06-26 12:11:00,
2013-06-26 04:16:00,55.2,47.1,29.26,WSW,248,0.0,0.0,74,0.00,,---,0.00,VWS V14.01,2013-06-26 12:16:00,
2013-06-26 04:21:00,55.2,47.1,29.26,NW,315,1.3,1.3,74,0.00,,---,0.00,VWS V14.01,2013-06-26 12:21:00,
2013-06-26 04:25:00,55.2,46.7,29.26,NW,315,0.0,0.0,73,0.00,,---,0.00,VWS V14.01,2013-06-26 12:25:00,
2013-06-26 04:30:00,55.2,46.7,29.26,NW,315,0.0,0.0,73,0.00,,---,0.00,VWS V14.01,2013-06-26 12:30:00,
2013-06-26 04:35:00,55.4,46.9,29.26,WNW,292,0.0,0.0,73,0.00,,---,0.00,VWS V14.01,2013-06-26 12:35:00,
2013-06-26 04:40:00,55.2,46.7,29.26,WNW,292,0.0,0.0,73,0.00,,---,0.00,VWS V14.01,2013-06-26 12:40:00,
2013-06-26 04:45:00,54.9,46.4,29.26,WNW,292,0.0,0.0,73,0.00,,---,0.00,VWS V14.01,2013-06-26 12:45:00,
2013-06-26 04:50:00,54.5,46.0,29.26,WNW,292,0.0,0.0,73,0.00,,---,0.00,VWS V14.01,2013-06-26 12:50:00,
2013-06-26 04:55:00,54.3,45.9,29.26,WNW,292,0.0,0.0,73,0.00,,---,0.00,VWS V14.01,2013-06-26 12:55:00,
2013-06-26 05:00:00,54.1,46.0,29.26,WNW,292,0.0,0.0,74,0.00,,---,0.00,VWS V14.01,2013-06-26 13:00:00,
2013-06-26 05:05:00,54.3,46.2,29.26,WNW,292,0.0,0.0,74,0.00,,---,0.00,VWS V14.01,2013-06-26 13:05:00,
2013-06-26 05:10:00,54.5,46.8,29.26,WNW,292,0.0,0.0,75,0.00,,---,0.00,VWS V14.01,2013-06-26 13:10:00,
2013-06-26 05:15:00,54.5,47.1,29.29,WNW,292,0.0,0.0,76,0.00,,---,0.00,VWS V14.01,2013-06-26 13:15:00,
2013-06-26 05:20:00,54.7,47.6,29.29,NW,315,0.0,0.0,77,0.00,,---,0.00,VWS V14.01,2013-06-26 13:20:00,
2013-06-26 05:25:00,54.9,47.8,29.29,NW,315,0.0,0.0,77,0.00,,---,0.00,VWS V14.01,2013-06-26 13:25:00,
2013-06-26 05:30:00,55.0,48.0,29.26,NW,315,0.0,0.0,77,0.00,,---,0.00,VWS V14.01,2013-06-26 13:30:00,
2013-06-26 05:35:00,55.0,48.0,29.26,NW,315,0.0,0.0,77,0.00,,---,0.00,VWS V14.01,2013-06-26 13:35:00,
2013-06-26 05:40:00,55.2,48.2,29.26,NW,315,0.0,0.0,77,0.00,,---,0.00,VWS V14.01,2013-06-26 13:40:00,
2013-06-26 05:45:00,55.4,48.0,29.26,NW,315,0.0,0.0,76,0.00,,---,0.00,VWS V14.01,2013-06-26 13:45:00,
2013-06-26 05:50:00,55.6,48.2,29.26,NW,315,0.0,0.0,76,0.00,,---,0.00,VWS V14.01,2013-06-26 13:50:00,
2013-06-26 05:55:00,55.8,48.3,29.26,NW,315,0.0,0.0,76,0.00,,---,0.00,VWS V14.01,2013-06-26 13:55:00,
2013-06-26 06:00:00,55.9,48.5,29.23,NW,315,0.0,0.0,76,0.00,,---,0.00,VWS V14.01,2013-06-26 14:00:00,
2013-06-26 06:05:00,55.9,48.5,29.23,SSW,202,0.0,0.0,76,0.00,,---,0.00,VWS V14.01,2013-06-26 14:05:00,
2013-06-26 06:10:00,56.1,48.7,29.23,SSW,202,0.0,0.0,76,0.00,,---,0.00,VWS V14.01,2013-06-26 14:10:00,
2013-06-26 06:15:00,56.3,49.2,29.26,SSW,202,0.0,0.0,77,0.00,,---,0.00,VWS V14.01,2013-06-26 14:15:00,
2013-06-26 06:20:00,56.5,49.4,29.26,SE,135,0.0,0.0,77,0.00,,---,0.00,VWS V14.01,2013-06-26 14:20:00,
2013-06-26 06:25:00,56.8,49.7,29.26,SE,135,0.0,0.0,77,0.00,,---,0.00,VWS V14.01,2013-06-26 14:25:00,
2013-06-26 06:30:00,57.2,49.7,29.23,SE,135,0.0,0.0,76,0.00,,---,0.00,VWS V14.01,2013-06-26 14:30:00,
2013-06-26 06:35:00,57.2,49.7,29.23,NW,315,0.0,0.0,76,0.00,,---,0.00,VWS V14.01,2013-06-26 14:35:00,
2013-06-26 06:40:00,57.6,50.1,29.23,ENE,68,0.0,0.0,76,0.00,,---,0.00,VWS V14.01,2013-06-26 14:40:00,
2013-06-26 06:45:00,57.6,49.7,29.29,ESE,112,0.0,0.0,75,0.00,,---,0.00,VWS V14.01,2013-06-26 14:45:00,
2013-06-26 06:50:00,57.7,49.9,29.29,ESE,112,0.0,0.0,75,0.00,,---,0.00,VWS V14.01,2013-06-26 14:50:00,
2013-06-26 06:55:00,57.9,50.0,29.29,ESE,112,0.0,0.0,75,0.00,,---,0.00,VWS V14.01,2013-06-26 14:55:00,
2013-06-26 07:00:00,58.3,50.4,29.23,ESE,112,0.0,0.0,75,0.00,,---,0.00,VWS V14.01,2013-06-26 15:00:00,
2013-06-26 07:05:00,58.5,50.6,29.23,SSE,158,0.0,0.0,75,0.00,,---,0.00,VWS V14.01,2013-06-26 15:05:00,
2013-06-26 07:10:00,59.2,50.9,29.23,WNW,292,0.0,0.0,74,0.00,,---,0.00,VWS V14.01,2013-06-26 15:10:00,
2013-06-26 07:15:00,60.3,51.6,29.26,WNW,292,0.0,0.0,73,0.00,,---,0.00,VWS V14.01,2013-06-26 15:15:00,
2013-06-26 07:20:00,60.6,51.6,29.26,West,270,0.0,0.0,72,0.00,,---,0.00,VWS V14.01,2013-06-26 15:20:00,
2013-06-26 07:25:00,60.6,51.2,29.26,WNW,292,0.0,0.0,71,0.00,,---,0.00,VWS V14.01,2013-06-26 15:25:00,
2013-06-26 07:30:00,61.0,51.1,29.23,North,0,0.0,0.0,70,0.00,,---,0.00,VWS V14.01,2013-06-26 15:30:00,
2013-06-26 07:35:00,61.2,50.9,29.23,NNW,338,0.0,0.0,69,0.00,,---,0.00,VWS V14.01,2013-06-26 15:35:00,
2013-06-26 07:40:00,61.3,50.7,29.23,North,0,0.0,1.1,68,0.00,,---,0.00,VWS V14.01,2013-06-26 15:40:00,
2013-06-26 07:45:00,61.5,50.5,29.26,NNW,338,0.0,0.0,67,0.00,,---,0.00,VWS V14.01,2013-06-26 15:45:00,
2013-06-26 07:50:00,62.1,50.6,29.26,NNW,338,0.0,0.0,66,0.00,,---,0.00,VWS V14.01,2013-06-26 15:50:00,
2013-06-26 07:55:00,63.0,51.0,29.26,ENE,68,0.0,0.0,65,0.00,,---,0.00,VWS V14.01,2013-06-26 15:55:00,
2013-06-26 08:00:00,64.4,52.0,29.26,SE,135,0.0,0.0,64,0.00,,---,0.00,VWS V14.01,2013-06-26 16:00:00,
2013-06-26 08:05:00,65.3,52.0,29.26,SSW,202,0.0,0.0,62,0.00,,---,0.00,VWS V14.01,2013-06-26 16:05:00,
2013-06-26 08:10:00,66.6,51.3,29.26,NW,315,2.0,2.0,58,0.00,,---,0.00,VWS V14.01,2013-06-26 16:10:00,
2013-06-26 08:15:00,67.6,50.9,29.26,WNW,292,1.6,1.6,55,0.00,,---,0.00,VWS V14.01,2013-06-26 16:15:00,
2013-06-26 08:20:00,68.0,51.2,29.26,NNW,338,0.0,1.3,55,0.00,,---,0.00,VWS V14.01,2013-06-26 16:20:00,
2013-06-26 08:25:00,69.1,50.7,29.26,West,270,1.3,2.2,52,0.00,,---,0.00,VWS V14.01,2013-06-26 16:25:00,
2013-06-26 08:30:00,69.1,49.1,29.26,North,0,0.0,0.0,49,0.00,,---,0.00,VWS V14.01,2013-06-26 16:30:00,
2013-06-26 08:35:00,70.0,50.0,29.26,ESE,112,0.0,0.0,49,0.00,,---,0.00,VWS V14.01,2013-06-26 16:35:00,
2013-06-26 08:40:00,71.1,51.0,29.26,NNE,22,0.0,1.6,49,0.00,,---,0.00,VWS V14.01,2013-06-26 16:40:00,
2013-06-26 08:45:00,71.2,50.6,29.26,NNE,22,0.0,1.6,48,0.00,,---,0.00,VWS V14.01,2013-06-26 16:45:00,
2013-06-26 08:50:00,71.6,50.3,29.26,ENE,68,0.0,1.3,47,0.00,,---,0.00,VWS V14.01,2013-06-26 16:50:00,
2013-06-26 08:55:00,72.3,50.4,29.26,NNE,22,0.0,0.0,46,0.00,,---,0.00,VWS V14.01,2013-06-26 16:55:00,
2013-06-26 09:00:00,73.0,51.1,29.26,WNW,292,1.3,2.7,46,0.00,,---,0.00,VWS V14.01,2013-06-26 17:00:00,
2013-06-26 09:05:00,73.6,50.3,29.26,ENE,68,0.0,0.9,44,0.00,,---,0.00,VWS V14.01,2013-06-26 17:05:00,
2013-06-26 09:10:00,73.9,50.7,29.26,ENE,68,0.0,0.0,44,0.00,,---,0.00,VWS V14.01,2013-06-26 17:10:00,
2013-06-26 09:15:00,73.8,49.9,29.23,ESE,112,2.2,2.2,43,0.00,,---,0.00,VWS V14.01,2013-06-26 17:15:00,
2013-06-26 09:20:00,74.3,50.4,29.23,ENE,68,1.6,2.0,43,0.00,,---,0.00,VWS V14.01,2013-06-26 17:20:00,
2013-06-26 09:25:00,74.8,50.9,29.23,SE,135,3.1,3.1,43,0.00,,---,0.00,VWS V14.01,2013-06-26 17:25:00,
2013-06-26 09:30:00,74.3,50.4,29.23,ESE,112,2.7,2.9,43,0.00,,---,0.00,VWS V14.01,2013-06-26 17:30:00,
2013-06-26 09:35:00,74.3,49.8,29.23,ESE,112,2.5,2.5,42,0.00,,---,0.00,VWS V14.01,2013-06-26 17:35:00,
2013-06-26 09:40:00,74.3,50.4,29.23,SE,135,2.9,2.9,43,0.00,,---,0.00,VWS V14.01,2013-06-26 17:40:00,
2013-06-26 09:45:00,74.5,49.9,29.23,SSE,158,1.1,2.5,42,0.00,,---,0.00,VWS V14.01,2013-06-26 17:45:00,
2013-06-26 09:50:00,74.1,49.6,29.23,ESE,112,3.6,3.6,42,0.00,,---,0.00,VWS V14.01,2013-06-26 17:50:00,
2013-06-26 09:55:00,74.3,49.8,29.23,SE,135,1.1,2.5,42,0.00,,---,0.00,VWS V14.01,2013-06-26 17:55:00,
2013-06-26 10:00:00,75.4,50.7,29.23,WSW,248,1.1,1.3,42,0.00,,---,0.00,VWS V14.01,2013-06-26 18:00:00,
2013-06-26 10:05:00,74.7,50.1,29.23,WSW,248,0.0,1.6,42,0.00,,---,0.00,VWS V14.01,2013-06-26 18:05:00,
2013-06-26 10:10:00,75.0,50.4,29.23,ESE,112,2.2,2.2,42,0.00,,---,0.00,VWS V14.01,2013-06-26 18:10:00,
2013-06-26 10:15:00,75.0,50.4,29.23,SSE,158,0.0,1.3,42,0.00,,---,0.00,VWS V14.01,2013-06-26 18:15:00,
2013-06-26 10:20:00,75.2,49.9,29.23,SE,135,3.4,3.4,41,0.00,,---,0.00,VWS V14.01,2013-06-26 18:20:00,
2013-06-26 10:25:00,75.9,51.2,29.23,ESE,112,2.7,4.3,42,0.00,,---,0.00,VWS V14.01,2013-06-26 18:25:00,
2013-06-26 10:30:00,76.6,51.8,29.23,SE,135,2.9,2.9,42,0.00,,---,0.00,VWS V14.01,2013-06-26 18:30:00,
2013-06-26 10:35:00,76.5,51.0,29.23,ESE,112,3.1,3.6,41,0.00,,---,0.00,VWS V14.01,2013-06-26 18:35:00,
2013-06-26 10:40:00,76.6,51.2,29.23,ESE,112,4.7,4.9,41,0.00,,---,0.00,VWS V14.01,2013-06-26 18:40:00,
2013-06-26 10:45:00,77.2,51.0,29.23,SE,135,2.7,2.7,40,0.00,,---,0.00,VWS V14.01,2013-06-26 18:45:00,
2013-06-26 10:50:00,77.2,50.3,29.23,SE,135,2.7,4.0,39,0.00,,---,0.00,VWS V14.01,2013-06-26 18:50:00,
2013-06-26 10:55:00,77.7,51.5,29.23,SE,135,1.6,3.1,40,0.00,,---,0.00,VWS V14.01,2013-06-26 18:55:00,
2013-06-26 11:00:00,78.6,52.3,29.23,ESE,112,3.1,3.8,40,0.00,,---,0.00,VWS V14.01,2013-06-26 19:00:00,
2013-06-26 11:05:00,78.6,51.6,29.23,SSE,158,2.5,5.6,39,0.00,,---,0.00,VWS V14.01,2013-06-26 19:05:00,
2013-06-26 11:10:00,78.3,50.6,29.23,SSE,158,2.0,3.8,38,0.00,,---,0.00,VWS V14.01,2013-06-26 19:10:00,
2013-06-26 11:15:00,78.8,51.8,29.20,ESE,112,3.4,4.0,39,0.00,,---,0.00,VWS V14.01,2013-06-26 19:15:00,
2013-06-26 11:20:00,78.4,51.5,29.20,SE,135,2.5,2.5,39,0.00,,---,0.00,VWS V14.01,2013-06-26 19:20:00,
2013-06-26 11:25:00,79.5,52.4,29.20,SSW,202,2.0,2.0,39,0.00,,---,0.00,VWS V14.01,2013-06-26 19:25:00,
2013-06-26 11:30:00,79.7,51.2,29.20,SSE,158,2.2,4.3,37,0.00,,---,0.00,VWS V14.01,2013-06-26 19:30:00,
2013-06-26 11:35:00,79.9,51.3,29.20,ESE,112,2.7,4.9,37,0.00,,---,0.00,VWS V14.01,2013-06-26 19:35:00,
2013-06-26 11:40:00,80.4,51.8,29.20,SE,135,3.8,3.8,37,0.00,,---,0.00,VWS V14.01,2013-06-26 19:40:00,
2013-06-26 11:45:00,80.4,51.0,29.20,SSE,158,3.8,5.6,36,0.00,,---,0.00,VWS V14.01,2013-06-26 19:45:00,
2013-06-26 11:50:00,80.4,51.0,29.20,ESE,112,6.0,6.0,36,0.00,,---,0.00,VWS V14.01,2013-06-26 19:50:00,
2013-06-26 11:55:00,79.2,49.2,29.20,South,180,4.3,6.3,35,0.00,,---,0.00,VWS V14.01,2013-06-26 19:55:00,
2013-06-26 12:00:00,79.5,50.2,29.20,ENE,68,4.7,4.7,36,0.00,,---,0.00,VWS V14.01,2013-06-26 20:00:00,
2013-06-26 12:05:00,79.7,50.4,29.20,SE,135,4.3,5.4,36,0.00,,---,0.00,VWS V14.01,2013-06-26 20:05:00,
2013-06-26 12:10:00,79.9,50.6,29.20,ESE,112,5.4,5.4,36,0.00,,---,0.00,VWS V14.01,2013-06-26 20:10:00,
2013-06-26 12:15:00,79.3,50.1,29.20,SSE,158,3.4,3.4,36,0.00,,---,0.00,VWS V14.01,2013-06-26 20:15:00,
2013-06-26 12:20:00,79.0,49.8,29.20,ESE,112,5.8,6.3,36,0.00,,---,0.00,VWS V14.01,2013-06-26 20:20:00,
2013-06-26 12:25:00,78.6,49.5,29.20,SSE,158,2.5,5.6,36,0.00,,---,0.00,VWS V14.01,2013-06-26 20:25:00,
2013-06-26 12:30:00,78.8,49.6,29.23,ESE,112,4.3,5.4,36,0.00,,---,0.00,VWS V14.01,2013-06-26 20:30:00,
2013-06-26 12:35:00,79.5,50.2,29.23,SE,135,2.9,4.3,36,0.00,,---,0.00,VWS V14.01,2013-06-26 20:35:00,
2013-06-26 12:40:00,79.5,50.2,29.23,ENE,68,3.4,5.4,36,0.00,,---,0.00,VWS V14.01,2013-06-26 20:40:00,
2013-06-26 12:45:00,79.3,50.8,29.20,South,180,2.2,4.0,37,0.00,,---,0.00,VWS V14.01,2013-06-26 20:45:00,
2013-06-26 12:50:00,79.5,51.0,29.20,SW,225,3.4,3.8,37,0.00,,---,0.00,VWS V14.01,2013-06-26 20:50:00,
2013-06-26 12:55:00,79.3,50.8,29.20,SE,135,3.4,3.4,37,0.00,,---,0.00,VWS V14.01,2013-06-26 20:55:00,
2013-06-26 13:00:00,79.9,52.0,29.23,SSE,158,1.6,1.6,38,0.00,,---,0.00,VWS V14.01,2013-06-26 21:00:00,
2013-06-26 13:05:00,79.7,51.2,29.23,SSE,158,1.6,1.6,37,0.00,,---,0.00,VWS V14.01,2013-06-26 21:05:00,
2013-06-26 13:10:00,79.0,49.0,29.23,SSE,158,3.1,3.1,35,0.00,,---,0.00,VWS V14.01,2013-06-26 21:10:00,
2013-06-26 13:15:00,79.3,50.1,29.23,SW,225,2.9,2.9,36,0.00,,---,0.00,VWS V14.01,2013-06-26 21:15:00,
2013-06-26 13:20:00,79.5,51.0,29.23,SSW,202,2.7,2.7,37,0.00,,---,0.00,VWS V14.01,2013-06-26 21:20:00,
2013-06-26 13:25:00,79.7,51.9,29.23,East,90,4.7,4.7,38,0.00,,---,0.00,VWS V14.01,2013-06-26 21:25:00,
2013-06-26 13:30:00,80.4,51.8,29.23,ESE,112,3.6,3.6,37,0.00,,---,0.00,VWS V14.01,2013-06-26 21:30:00,
2013-06-26 13:35:00,80.8,51.4,29.23,ENE,68,2.9,4.0,36,0.00,,---,0.00,VWS V14.01,2013-06-26 21:35:00,
2013-06-26 13:40:00,80.6,49.7,29.23,SSE,158,0.0,0.0,34,0.00,,---,0.00,VWS V14.01,2013-06-26 21:40:00,
2013-06-26 13:45:00,79.9,50.6,29.23,WSW,248,0.0,0.0,36,0.00,,---,0.00,VWS V14.01,2013-06-26 21:45:00,
2013-06-26 13:50:00,79.9,49.8,29.23,SW,225,1.3,3.1,35,0.00,,---,0.00,VWS V14.01,2013-06-26 21:50:00,
2013-06-26 13:55:00,80.1,51.5,29.23,ENE,68,4.3,4.3,37,0.00,,---,0.00,VWS V14.01,2013-06-26 21:55:00,
2013-06-26 14:00:00,79.5,51.7,29.26,ESE,112,2.0,6.5,38,0.00,,---,0.00,VWS V14.01,2013-06-26 22:00:00,
2013-06-26 14:05:00,80.1,52.2,29.26,SE,135,1.1,3.1,38,0.00,,---,0.00,VWS V14.01,2013-06-26 22:05:00,
2013-06-26 14:10:00,80.1,52.2,29.26,SSE,158,1.6,1.6,38,0.00,,---,0.00,VWS V14.01,2013-06-26 22:10:00,
2013-06-26 14:15:00,79.7,51.2,29.26,SE,135,2.7,2.7,37,0.00,,---,0.00,VWS V14.01,2013-06-26 22:15:00,
2013-06-26 14:20:00,79.9,51.3,29.26,SSW,202,2.5,3.1,37,0.00,,---,0.00,VWS V14.01,2013-06-26 22:20:00,
2013-06-26 14:25:00,80.1,51.5,29.26,ESE,112,3.4,6.3,37,0.00,,---,0.00,VWS V14.01,2013-06-26 22:25:00,
2013-06-26 14:30:00,80.2,51.6,29.26,ESE,112,3.8,3.8,37,0.00,,---,0.00,VWS V14.01,2013-06-26 22:30:00,
2013-06-26 14:35:00,80.1,50.7,29.26,SSE,158,3.1,3.1,36,0.00,,---,0.00,VWS V14.01,2013-06-26 22:35:00,
2013-06-26 14:40:00,79.5,48.7,29.26,SSE,158,3.4,5.4,34,0.00,,---,0.00,VWS V14.01,2013-06-26 22:40:00,
2013-06-26 14:45:00,79.7,49.7,29.26,ESE,112,4.9,4.9,35,0.00,,---,0.00,VWS V14.01,2013-06-26 22:45:00,
2013-06-26 14:50:00,79.7,49.7,29.26,ESE,112,6.3,6.3,35,0.00,,---,0.00,VWS V14.01,2013-06-26 22:50:00,
2013-06-26 14:55:00,79.7,49.7,29.26,SSE,158,2.5,4.3,35,0.00,,---,0.00,VWS V14.01,2013-06-26 22:55:00,
2013-06-26 15:00:00,79.9,49.0,29.26,SSW,202,2.7,4.7,34,0.00,,---,0.00,VWS V14.01,2013-06-26 23:00:00,
2013-06-26 15:05:00,80.6,50.5,29.26,SSW,202,3.1,3.8,35,0.00,,---,0.00,VWS V14.01,2013-06-26 23:05:00,
2013-06-26 15:10:00,80.8,49.8,29.26,SW,225,4.3,4.3,34,0.00,,---,0.00,VWS V14.01,2013-06-26 23:10:00,
2013-06-26 15:15:00,79.9,49.8,29.26,SW,225,2.2,3.1,35,0.00,,---,0.00,VWS V14.01,2013-06-26 23:15:00,
2013-06-26 15:20:00,80.4,50.3,29.26,SSE,158,4.9,4.9,35,0.00,,---,0.00,VWS V14.01,2013-06-26 23:20:00,
2013-06-26 15:25:00,80.6,48.9,29.26,SE,135,2.2,4.7,33,0.00,,---,0.00,VWS V14.01,2013-06-26 23:25:00,
2013-06-26 15:30:00,81.1,50.1,29.26,South,180,1.6,2.5,34,0.00,,---,0.00,VWS V14.01,2013-06-26 23:30:00,
2013-06-26 15:35:00,81.7,49.8,29.26,SSE,158,3.4,3.4,33,0.00,,---,0.00,VWS V14.01,2013-06-26 23:35:00,
2013-06-26 15:40:00,82.4,50.4,29.26,SE,135,2.0,2.2,33,0.00,,---,0.00,VWS V14.01,2013-06-26 23:40:00,
2013-06-26 15:45:00,82.9,50.1,29.26,SSW,202,3.4,3.6,32,0.00,,---,0.00,VWS V14.01,2013-06-26 23:45:00,
2013-06-26 15:50:00,82.9,49.2,29.26,SW,225,2.5,2.5,31,0.00,,---,0.00,VWS V14.01,2013-06-26 23:50:00,
2013-06-26 15:55:00,83.3,48.7,29.26,SE,135,4.9,5.4,30,0.00,,---,0.00,VWS V14.01,2013-06-26 23:55:00,
2013-06-26 16:00:00,83.5,48.8,29.26,SSW,202,4.9,5.8,30,0.00,,---,0.00,VWS V14.01,2013-06-27 00:00:00,
2013-06-26 16:05:00,83.1,47.6,29.26,South,180,4.3,6.3,29,0.00,,---,0.00,VWS V14.01,2013-06-27 00:05:00,
2013-06-26 16:10:00,82.6,47.1,29.26,WSW,248,2.9,6.3,29,0.00,,---,0.00,VWS V14.01,2013-06-27 00:10:00,
2013-06-26 16:15:00,82.2,47.7,29.26,ESE,112,4.3,4.3,30,0.00,,---,0.00,VWS V14.01,2013-06-27 00:15:00,
2013-06-26 16:20:00,82.4,47.0,29.26,SSE,158,8.5,8.5,29,0.00,,---,0.00,VWS V14.01,2013-06-27 00:20:00,
2013-06-26 16:25:00,82.6,48.0,29.26,East,90,2.0,2.0,30,0.00,,---,0.00,VWS V14.01,2013-06-27 00:25:00,
2013-06-26 16:30:00,82.2,47.7,29.26,WSW,248,1.6,3.4,30,0.00,,---,0.00,VWS V14.01,2013-06-27 00:30:00,
2013-06-26 16:35:00,82.2,47.7,29.26,SE,135,3.8,4.7,30,0.00,,---,0.00,VWS V14.01,2013-06-27 00:35:00,
2013-06-26 16:40:00,82.4,47.0,29.26,SE,135,4.0,6.5,29,0.00,,---,0.00,VWS V14.01,2013-06-27 00:40:00,
2013-06-26 16:45:00,82.4,47.0,29.26,ESE,112,6.0,6.0,29,0.00,,---,0.00,VWS V14.01,2013-06-27 00:45:00,
2013-06-26 16:50:00,82.8,49.1,29.26,SW,225,4.9,4.9,31,0.00,,---,0.00,VWS V14.01,2013-06-27 00:50:00,
2013-06-26 16:55:00,82.4,48.8,29.26,SSE,158,4.0,4.3,31,0.00,,---,0.00,VWS V14.01,2013-06-27 00:55:00,
2013-06-26 17:00:00,82.4,48.8,29.29,WSW,248,3.1,4.3,31,0.00,,---,0.00,VWS V14.01,2013-06-27 01:00:00,
2013-06-26 17:05:00,82.4,47.9,29.29,SSE,158,3.1,3.1,30,0.00,,---,0.00,VWS V14.01,2013-06-27 01:05:00,
2013-06-26 17:10:00,82.4,47.9,29.29,SSW,202,1.6,3.4,30,0.00,,---,0.00,VWS V14.01,2013-06-27 01:10:00,
2013-06-26 17:15:00,82.0,47.6,29.29,SSW,202,3.4,5.6,30,0.00,,---,0.00,VWS V14.01,2013-06-27 01:15:00,
2013-06-26 17:20:00,81.7,47.3,29.29,SSW,202,1.6,3.6,30,0.00,,---,0.00,VWS V14.01,2013-06-27 01:20:00,
2013-06-26 17:25:00,81.5,46.2,29.29,SSE,158,4.3,4.3,29,0.00,,---,0.00,VWS V14.01,2013-06-27 01:25:00,
2013-06-26 17:30:00,81.1,45.9,29.29,WSW,248,3.6,6.5,29,0.00,,---,0.00,VWS V14.01,2013-06-27 01:30:00,
2013-06-26 17:35:00,81.1,46.8,29.29,SSE,158,3.8,4.0,30,0.00,,---,0.00,VWS V14.01,2013-06-27 01:35:00,
2013-06-26 17:40:00,81.0,45.8,29.29,SW,225,7.4,7.4,29,0.00,,---,0.00,VWS V14.01,2013-06-27 01:40:00,
2013-06-26 17:45:00,80.8,44.7,29.32,SE,135,4.9,7.6,28,0.00,,---,0.00,VWS V14.01,2013-06-27 01:45:00,
2013-06-26 17:50:00,80.8,45.6,29.32,ESE,112,5.8,5.8,29,0.00,,---,0.00,VWS V14.01,2013-06-27 01:50:00,
2013-06-26 17:55:00,80.8,45.6,29.32,West,270,1.1,5.8,29,0.00,,---,0.00,VWS V14.01,2013-06-27 01:55:00,
2013-06-26 18:00:00,80.8,45.6,29.32,West,270,2.5,2.5,29,0.00,,---,0.00,VWS V14.01,2013-06-27 02:00:00,
2013-06-26 18:05:00,81.0,45.8,29.32,SSE,158,3.4,3.4,29,0.00,,---,0.00,VWS V14.01,2013-06-27 02:05:00,
2013-06-26 18:10:00,80.8,45.6,29.32,SW,225,1.6,1.6,29,0.00,,---,0.00,VWS V14.01,2013-06-27 02:10:00,
2013-06-26 18:15:00,80.8,45.6,29.32,SW,225,3.4,5.4,29,0.00,,---,0.00,VWS V14.01,2013-06-27 02:15:00,
2013-06-26 18:20:00,81.0,45.8,29.32,SSW,202,2.0,2.0,29,0.00,,---,0.00,VWS V14.01,2013-06-27 02:20:00,
2013-06-26 18:25:00,80.6,44.5,29.32,SSW,202,2.0,2.2,28,0.00,,---,0.00,VWS V14.01,2013-06-27 02:25:00,
2013-06-26 18:30:00,79.3,45.2,29.32,SE,135,4.0,4.0,30,0.00,,---,0.00,VWS V14.01,2013-06-27 02:30:00,
2013-06-26 18:35:00,79.2,45.1,29.32,SE,135,3.1,3.1,30,0.00,,---,0.00,VWS V14.01,2013-06-27 02:35:00,
2013-06-26 18:40:00,79.0,45.8,29.32,ESE,112,2.9,2.9,31,0.00,,---,0.00,VWS V14.01,2013-06-27 02:40:00,
2013-06-26 18:45:00,78.8,44.8,29.29,SW,225,2.0,2.0,30,0.00,,---,0.00,VWS V14.01,2013-06-27 02:45:00,
2013-06-26 18:50:00,78.8,45.6,29.29,WSW,248,2.0,2.0,31,0.00,,---,0.00,VWS V14.01,2013-06-27 02:50:00,
2013-06-26 18:55:00,79.2,45.1,29.29,SE,135,3.1,3.1,30,0.00,,---,0.00,VWS V14.01,2013-06-27 02:55:00,
2013-06-26 19:00:00,79.3,46.1,29.32,East,90,3.1,3.8,31,0.00,,---,0.00,VWS V14.01,2013-06-27 03:00:00,
2013-06-26 19:05:00,79.0,45.8,29.32,South,180,7.2,7.2,31,0.00,,---,0.00,VWS V14.01,2013-06-27 03:05:00,
2013-06-26 19:10:00,78.8,45.6,29.32,SW,225,2.5,7.6,31,0.00,,---,0.00,VWS V14.01,2013-06-27 03:10:00,
2013-06-26 19:15:00,78.3,46.0,29.32,SE,135,4.9,6.5,32,0.00,,---,0.00,VWS V14.01,2013-06-27 03:15:00,
2013-06-26 19:20:00,78.3,46.0,29.32,SSE,158,3.8,4.0,32,0.00,,---,0.00,VWS V14.01,2013-06-27 03:20:00,
2013-06-26 19:25:00,78.3,46.0,29.32,South,180,2.7,3.4,32,0.00,,---,0.00,VWS V14.01,2013-06-27 03:25:00,
2013-06-26 19:30:00,78.3,46.0,29.32,SE,135,10.5,10.5,32,0.00,,---,0.00,VWS V14.01,2013-06-27 03:30:00,
2013-06-26 19:35:00,77.9,44.9,29.32,WSW,248,2.5,3.8,31,0.00,,---,0.00,VWS V14.01,2013-06-27 03:35:00,
2013-06-26 19:40:00,77.7,44.7,29.32,SSE,158,4.9,7.6,31,0.00,,---,0.00,VWS V14.01,2013-06-27 03:40:00,
2013-06-26 19:45:00,77.2,44.2,29.35,South,180,4.0,7.6,31,0.00,,---,0.00,VWS V14.01,2013-06-27 03:45:00,
2013-06-26 19:50:00,76.8,44.8,29.35,SW,225,6.5,6.5,32,0.00,,---,0.00,VWS V14.01,2013-06-27 03:50:00,
2013-06-26 19:55:00,76.6,44.6,29.35,WSW,248,5.4,5.4,32,0.00,,---,0.00,VWS V14.01,2013-06-27 03:55:00,
2013-06-26 20:00:00,76.5,44.4,29.35,West,270,2.0,2.0,32,0.00,,---,0.00,VWS V14.01,2013-06-27 04:00:00,
2013-06-26 20:01:00,76.3,44.3,29.35,WSW,248,4.0,4.0,32,0.00,,---,0.00,VWS V14.01,2013-06-27 04:01:00,
2013-06-26 20:02:00,76.3,44.3,29.35,SW,225,3.1,4.9,32,0.00,,---,0.00,VWS V14.01,2013-06-27 04:02:00,
2013-06-26 20:07:00,76.1,44.1,29.35,WSW,248,6.5,6.5,32,0.00,,---,0.00,VWS V14.01,2013-06-27 04:07:00,
2013-06-26 20:12:00,75.7,43.8,29.35,WSW,248,4.0,4.3,32,0.00,,---,0.00,VWS V14.01,2013-06-27 04:12:00,
2013-06-26 20:17:00,75.7,43.8,29.38,NNW,338,7.8,7.8,32,0.00,,---,0.00,VWS V14.01,2013-06-27 04:17:00,
2013-06-26 20:22:00,75.4,43.5,29.38,SE,135,1.6,1.6,32,0.00,,---,0.00,VWS V14.01,2013-06-27 04:22:00,
2013-06-26 20:27:00,75.2,43.3,29.38,SSW,202,2.0,2.7,32,0.00,,---,0.00,VWS V14.01,2013-06-27 04:27:00,
2013-06-26 20:32:00,75.2,43.3,29.38,SSW,202,3.6,3.6,32,0.00,,---,0.00,VWS V14.01,2013-06-27 04:32:00,
2013-06-26 20:37:00,75.0,44.0,29.38,WSW,248,3.4,4.0,33,0.00,,---,0.00,VWS V14.01,2013-06-27 04:37:00,
2013-06-26 20:42:00,74.8,43.8,29.38,WSW,248,2.7,2.7,33,0.00,,---,0.00,VWS V14.01,2013-06-27 04:42:00,
2013-06-26 20:47:00,74.7,43.7,29.38,WSW,248,1.1,3.4,33,0.00,,---,0.00,VWS V14.01,2013-06-27 04:47:00,
2013-06-26 20:52:00,74.5,44.3,29.38,SSE,158,2.9,5.4,34,0.00,,---,0.00,VWS V14.01,2013-06-27 04:52:00,
2013-06-26 20:57:00,74.3,43.4,29.38,SSW,202,3.6,3.6,33,0.00,,---,0.00,VWS V14.01,2013-06-27 04:57:00,
2013-06-26 21:02:00,74.1,44.8,29.38,WSW,248,2.2,4.9,35,0.00,,---,0.00,VWS V14.01,2013-06-27 05:02:00,
2013-06-26 21:07:00,73.9,43.8,29.38,SSE,158,1.6,3.6,34,0.00,,---,0.00,VWS V14.01,2013-06-27 05:07:00,
2013-06-26 21:12:00,73.8,43.7,29.38,WSW,248,2.7,2.9,34,0.00,,---,0.00,VWS V14.01,2013-06-27 05:12:00,
2013-06-26 21:17:00,73.9,43.8,29.38,SSE,158,3.1,3.1,34,0.00,,---,0.00,VWS V14.01,2013-06-27 05:17:00,
2013-06-26 21:22:00,73.8,45.2,29.38,SSW,202,1.6,1.6,36,0.00,,---,0.00,VWS V14.01,2013-06-27 05:22:00,
2013-06-26 21:26:00,73.6,44.3,29.38,WSW,248,2.9,3.1,35,0.00,,---,0.00,VWS V14.01,2013-06-27 05:26:00,
2013-06-26 21:31:00,73.2,44.0,29.38,SW,225,6.0,7.6,35,0.00,,---,0.00,VWS V14.01,2013-06-27 05:31:00,
2013-06-26 21:36:00,73.0,44.5,29.38,SSW,202,2.9,2.9,36,0.00,,---,0.00,VWS V14.01,2013-06-27 05:36:00,
2013-06-26 21:41:00,72.7,44.2,29.38,NNW,338,2.0,3.1,36,0.00,,---,0.00,VWS V14.01,2013-06-27 05:41:00,
2013-06-26 21:46:00,72.1,44.5,29.41,SSW,202,0.0,0.0,37,0.00,,---,0.00,VWS V14.01,2013-06-27 05:46:00,
2013-06-26 21:51:00,71.8,44.1,29.41,SSW,202,4.9,4.9,37,0.00,,---,0.00,VWS V14.01,2013-06-27 05:51:00,
2013-06-26 21:56:00,71.2,44.4,29.41,WSW,248,0.0,0.0,38,0.00,,---,0.00,VWS V14.01,2013-06-27 05:56:00,
2013-06-26 22:01:00,70.9,44.7,29.44,North,0,0.0,0.0,39,0.00,,---,0.00,VWS V14.01,2013-06-27 06:01:00,
2013-06-26 22:06:00,70.7,45.2,29.44,SSW,202,0.0,0.0,40,0.00,,---,0.00,VWS V14.01,2013-06-27 06:06:00,
2013-06-26 22:11:00,70.3,44.2,29.44,SSW,202,0.0,0.0,39,0.00,,---,0.00,VWS V14.01,2013-06-27 06:11:00,
2013-06-26 22:16:00,70.2,44.7,29.44,NNE,22,1.3,2.2,40,0.00,,---,0.00,VWS V14.01,2013-06-27 06:16:00,
2013-06-26 22:21:00,69.8,44.4,29.44,NNW,338,0.0,0.0,40,0.00,,---,0.00,VWS V14.01,2013-06-27 06:21:00,
2013-06-26 22:26:00,69.4,44.7,29.44,North,0,0.0,0.0,41,0.00,,---,0.00,VWS V14.01,2013-06-27 06:26:00,
2013-06-26 22:31:00,69.3,45.2,29.44,North,0,0.0,0.0,42,0.00,,---,0.00,VWS V14.01,2013-06-27 06:31:00,
2013-06-26 22:36:00,68.7,44.7,29.44,North,0,0.0,0.0,42,0.00,,---,0.00,VWS V14.01,2013-06-27 06:36:00,
2013-06-26 22:41:00,68.5,44.6,29.44,North,0,0.0,0.0,42,0.00,,---,0.00,VWS V14.01,2013-06-27 06:41:00,
2013-06-26 22:46:00,68.0,45.9,29.44,North,0,0.0,0.0,45,0.00,,---,0.00,VWS V14.01,2013-06-27 06:46:00,
2013-06-26 22:51:00,67.5,46.0,29.44,West,270,0.0,0.0,46,0.00,,---,0.00,VWS V14.01,2013-06-27 06:51:00,
2013-06-26 22:56:00,67.1,45.7,29.44,WSW,248,2.2,3.1,46,0.00,,---,0.00,VWS V14.01,2013-06-27 06:56:00,
2013-06-26 23:01:00,66.7,45.9,29.44,WSW,248,2.0,2.0,47,0.00,,---,0.00,VWS V14.01,2013-06-27 07:01:00,
2013-06-26 23:06:00,66.6,45.7,29.44,WNW,292,3.8,4.0,47,0.00,,---,0.00,VWS V14.01,2013-06-27 07:06:00,
2013-06-26 23:11:00,66.4,46.1,29.44,SW,225,4.3,4.3,48,0.00,,---,0.00,VWS V14.01,2013-06-27 07:11:00,
2013-06-26 23:16:00,66.2,45.4,29.47,WSW,248,4.0,4.9,47,0.00,,---,0.00,VWS V14.01,2013-06-27 07:16:00,
2013-06-26 23:21:00,66.0,46.3,29.47,WNW,292,0.0,0.0,49,0.00,,---,0.00,VWS V14.01,2013-06-27 07:21:00,
2013-06-26 23:26:00,65.8,46.2,29.47,West,270,1.3,1.3,49,0.00,,---,0.00,VWS V14.01,2013-06-27 07:26:00,
2013-06-26 23:31:00,65.8,46.2,29.47,WNW,292,0.0,0.0,49,0.00,,---,0.00,VWS V14.01,2013-06-27 07:31:00,
2013-06-26 23:36:00,65.5,45.8,29.47,NNW,338,1.6,1.6,49,0.00,,---,0.00,VWS V14.01,2013-06-27 07:36:00,
2013-06-26 23:41:00,65.3,47.2,29.47,WNW,292,2.9,2.9,52,0.00,,---,0.00,VWS V14.01,2013-06-27 07:41:00,
2013-06-26 23:46:00,65.1,46.0,29.47,NNW,338,1.6,2.7,50,0.00,,---,0.00,VWS V14.01,2013-06-27 07:46:00,
2013-06-26 23:51:00,64.8,46.2,29.47,WNW,292,0.0,0.0,51,0.00,,---,0.00,VWS V14.01,2013-06-27 07:51:00,
2013-06-26 23:56:00,64.6,46.1,29.47,WNW,292,0.0,0.0,51,0.00,,---,0.00,VWS V14.01,2013-06-27 07:56:00,